Time;durP1;ratioP1;P1;durP2;ratioP2;P2;SDS_P1;SDS_P2;PMS_P1;PMS_P2;Temp;Humidity;BMP_temperature;BMP_pressure;BME280_temperature;BME280_humidity;BME280_pressure;Samples;Min_cycle;Max_cycle;Signal;HPM_P1;HPM_P2
2023/11/25 00:01:44;;;;;;;6.67;1.40;;;5.70;99.90;;;;;;4977883;28;20457;-68
2023/11/25 00:04:11;;;;;;;5.83;1.70;;;5.70;99.90;;;;;;4982701;28;20460;-68
2023/11/25 00:06:37;;;;;;;5.30;2.00;;;5.70;99.90;;;;;;4980627;28;20476;-68
2023/11/25 00:09:04;;;;;;;9.93;1.90;;;5.70;99.90;;;;;;4979212;28;20469;-68
2023/11/25 00:11:32;;;;;;;9.03;2.47;;;5.70;99.90;;;;;;4990247;28;20817;-67
2023/11/25 00:13:59;;;;;;;8.53;2.10;;;5.70;99.90;;;;;;4984218;28;20446;-66
2023/11/25 00:16:26;;;;;;;5.80;1.40;;;5.80;99.90;;;;;;4981056;28;20484;-66
2023/11/25 00:18:53;;;;;;;4.03;1.60;;;5.70;99.90;;;;;;4980808;28;20453;-66
2023/11/25 00:21:20;;;;;;;8.53;2.03;;;5.80;99.90;;;;;;4978955;28;20472;-67
2023/11/25 00:23:47;;;;;;;10.40;1.97;;;5.80;99.90;;;;;;4978643;28;20449;-67
2023/11/25 00:26:14;;;;;;;6.57;1.70;;;5.80;99.90;;;;;;4978459;28;20448;-68
2023/11/25 00:28:43;;;;;;;6.43;1.70;;;5.80;99.90;;;;;;4978315;28;20457;-68
2023/11/25 00:31:11;;;;;;;6.97;2.13;;;5.80;99.90;;;;;;4978438;28;20449;-68
2023/11/25 00:33:38;;;;;;;8.23;2.07;;;5.80;99.90;;;;;;4978266;28;20448;-68
2023/11/25 00:36:06;;;;;;;6.43;2.27;;;5.70;99.90;;;;;;4975868;28;20907;-68
2023/11/25 00:38:33;;;;;;;9.50;2.50;;;5.70;99.90;;;;;;4977488;28;20456;-68
2023/11/25 00:41:00;;;;;;;7.97;1.50;;;5.70;99.90;;;;;;4977772;28;20504;-68
2023/11/25 00:43:27;;;;;;;8.40;1.90;;;5.60;99.90;;;;;;4976825;28;20453;-68
2023/11/25 00:45:55;;;;;;;8.93;2.13;;;5.50;99.90;;;;;;4977965;28;20516;-68
2023/11/25 00:48:22;;;;;;;5.50;2.17;;;5.50;99.90;;;;;;4978225;28;20460;-68
2023/11/25 00:50:49;;;;;;;8.30;2.13;;;5.40;99.90;;;;;;4976649;28;20465;-68
2023/11/25 00:53:17;;;;;;;11.30;2.20;;;5.30;99.90;;;;;;4977677;28;20500;-68
2023/11/25 00:55:44;;;;;;;6.90;2.87;;;5.20;99.90;;;;;;4976971;28;20484;-68
2023/11/25 00:58:12;;;;;;;12.60;2.97;;;5.20;99.90;;;;;;4977656;28;20449;-68
2023/11/25 01:00:40;;;;;;;10.73;1.70;;;5.10;99.90;;;;;;4976458;28;20488;-68
2023/11/25 01:03:10;;;;;;;7.20;2.27;;;5.10;99.90;;;;;;4977163;28;20452;-68
2023/11/25 01:05:38;;;;;;;7.03;2.30;;;5.10;99.90;;;;;;4977001;28;20448;-68
2023/11/25 01:08:05;;;;;;;13.50;2.60;;;5.10;99.90;;;;;;4975523;28;20950;-68
2023/11/25 01:10:32;;;;;;;11.23;2.60;;;5.10;99.90;;;;;;4977224;28;20496;-68
2023/11/25 01:13:00;;;;;;;11.50;1.77;;;5.10;99.90;;;;;;4976935;28;20800;-68
2023/11/25 01:15:28;;;;;;;7.23;2.67;;;5.10;99.90;;;;;;4976868;28;20943;-68
2023/11/25 01:17:55;;;;;;;14.60;2.77;;;5.10;99.90;;;;;;4976573;28;20453;-68
2023/11/25 01:20:23;;;;;;;7.33;2.30;;;5.10;99.90;;;;;;4976418;28;20986;-68
2023/11/25 01:22:50;;;;;;;7.80;2.57;;;5.10;99.90;;;;;;4976871;28;20459;-68
2023/11/25 01:25:17;;;;;;;13.10;2.27;;;5.00;99.90;;;;;;4976695;28;20457;-68
2023/11/25 01:27:44;;;;;;;7.70;2.47;;;5.00;99.90;;;;;;4979125;28;20445;-68
2023/11/25 01:30:11;;;;;;;10.50;2.43;;;5.00;99.90;;;;;;4982347;28;20520;-68
2023/11/25 01:32:38;;;;;;;7.43;2.50;;;4.90;99.90;;;;;;4984811;28;21018;-68
2023/11/25 01:35:06;;;;;;;4.47;2.03;;;4.90;99.90;;;;;;4983529;28;20457;-68
2023/11/25 01:37:34;;;;;;;11.80;1.97;;;4.90;99.90;;;;;;4981973;28;20481;-68
2023/11/25 01:40:05;;;;;;;5.43;2.63;;;4.90;99.90;;;;;;4981820;28;20473;-68
2023/11/25 01:42:31;;;;;;;8.37;2.93;;;4.90;99.90;;;;;;4980571;28;20907;-68
2023/11/25 01:44:58;;;;;;;9.27;3.20;;;4.90;99.90;;;;;;4965644;28;20452;-68
2023/11/25 01:47:25;;;;;;;10.67;3.20;;;4.90;99.90;;;;;;4979794;28;20456;-68
2023/11/25 01:49:52;;;;;;;10.27;2.67;;;4.90;99.90;;;;;;4980291;28;20469;-68
2023/11/25 01:52:19;;;;;;;13.33;3.60;;;4.90;99.90;;;;;;4979907;28;20464;-68
2023/11/25 01:54:47;;;;;;;7.30;3.00;;;4.90;99.90;;;;;;4979114;28;20442;-68
2023/11/25 01:57:16;;;;;;;10.50;3.63;;;4.80;99.90;;;;;;4977958;28;20488;-68
2023/11/25 01:59:44;;;;;;;8.67;3.00;;;4.80;99.90;;;;;;4977929;28;20500;-68
2023/11/25 02:02:12;;;;;;;8.53;3.10;;;4.80;99.90;;;;;;4979290;28;20449;-68
2023/11/25 02:04:39;;;;;;;11.60;3.87;;;4.80;99.90;;;;;;4978624;28;20456;-67
2023/11/25 02:07:06;;;;;;;12.57;2.80;;;4.80;99.90;;;;;;4978435;28;20449;-66
2023/11/25 02:09:34;;;;;;;11.13;2.67;;;4.80;99.90;;;;;;4977897;28;20469;-67
2023/11/25 02:12:02;;;;;;;10.47;2.90;;;4.80;99.90;;;;;;4977734;28;20944;-68
2023/11/25 02:14:29;;;;;;;14.43;4.83;;;4.70;99.90;;;;;;4977406;28;20449;-68
2023/11/25 02:16:59;;;;;;;4.20;2.50;;;4.70;99.90;;;;;;4976437;28;20512;-68
2023/11/25 02:19:28;;;;;;;6.93;2.63;;;4.60;99.90;;;;;;4975760;28;20979;-70
2023/11/25 02:21:55;;;;;;;10.83;2.60;;;4.60;99.90;;;;;;4974868;28;20509;-69
2023/11/25 02:24:26;;;;;;;7.60;2.47;;;4.50;99.90;;;;;;4976925;28;20453;-68
2023/11/25 02:26:59;;;;;;;10.37;3.40;;;4.60;99.90;;;;;;4976504;28;20495;-68
2023/11/25 02:29:25;;;;;;;7.83;2.07;;;4.50;99.90;;;;;;4978304;28;20497;-69
2023/11/25 02:31:52;;;;;;;9.03;2.70;;;4.50;99.90;;;;;;4990084;28;20519;-68
2023/11/25 02:34:20;;;;;;;12.67;2.77;;;4.40;99.90;;;;;;4982320;28;20449;-68
2023/11/25 02:36:48;;;;;;;3.37;2.27;;;4.40;99.90;;;;;;4979516;28;20605;-68
2023/11/25 02:39:17;;;;;;;11.90;2.10;;;4.40;99.90;;;;;;4977836;28;20504;-68
2023/11/25 02:41:48;;;;;;;10.40;2.67;;;4.40;99.90;;;;;;4981014;28;20455;-68
2023/11/25 02:44:16;;;;;;;7.10;2.13;;;4.40;99.90;;;;;;4981220;28;20449;-68
2023/11/25 02:46:45;;;;;;;9.27;2.50;;;4.40;99.90;;;;;;4979506;28;20516;-68
2023/11/25 02:49:12;;;;;;;12.13;2.80;;;4.50;99.90;;;;;;4978426;28;20496;-68
2023/11/25 02:51:39;;;;;;;11.70;3.30;;;4.50;99.90;;;;;;4977933;28;20452;-68
2023/11/25 02:54:06;;;;;;;8.13;2.40;;;4.40;99.90;;;;;;4977364;28;20449;-68
2023/11/25 02:56:35;;;;;;;5.77;2.30;;;4.40;99.90;;;;;;4977386;28;20997;-68
2023/11/25 02:59:04;;;;;;;7.90;3.00;;;4.40;99.90;;;;;;4976912;28;20552;-68
2023/11/25 03:01:32;;;;;;;11.57;3.67;;;4.40;99.90;;;;;;4980580;28;20453;-68
2023/11/25 03:04:05;;;;;;;7.83;2.63;;;4.30;99.90;;;;;;4980425;28;20504;-68
2023/11/25 03:06:33;;;;;;;10.50;2.20;;;4.30;99.90;;;;;;4979136;28;20452;-68
2023/11/25 03:09:00;;;;;;;11.17;2.63;;;4.30;99.90;;;;;;4980127;28;20464;-68
2023/11/25 03:11:28;;;;;;;16.83;2.83;;;4.30;99.90;;;;;;4978752;28;20954;-68
2023/11/25 03:13:55;;;;;;;8.73;3.07;;;4.30;99.90;;;;;;4979011;28;20548;-68
2023/11/25 03:16:24;;;;;;;14.37;2.73;;;4.30;99.90;;;;;;4980062;28;20503;-68
2023/11/25 03:18:51;;;;;;;12.37;2.43;;;4.20;99.90;;;;;;4978601;28;20459;-68
2023/11/25 03:21:19;;;;;;;9.27;2.50;;;4.20;99.90;;;;;;4978023;28;20480;-68
2023/11/25 03:23:46;;;;;;;10.00;2.60;;;4.20;99.90;;;;;;4979805;28;20453;-68
2023/11/25 03:26:14;;;;;;;7.43;1.93;;;4.20;99.90;;;;;;4978080;28;20453;-68
2023/11/25 03:28:40;;;;;;;10.57;2.70;;;4.20;99.90;;;;;;4978630;28;20460;-68
2023/11/25 03:31:08;;;;;;;15.13;2.97;;;4.10;99.90;;;;;;4979321;28;20856;-68
2023/11/25 03:33:37;;;;;;;4.53;1.97;;;4.20;99.90;;;;;;4979201;28;20444;-69
2023/11/25 03:36:05;;;;;;;6.23;2.37;;;4.10;99.90;;;;;;4978994;28;20456;-68
2023/11/25 03:38:32;;;;;;;9.20;2.80;;;4.20;99.90;;;;;;4979247;28;20533;-68
2023/11/25 03:40:59;;;;;;;7.73;1.97;;;4.20;99.90;;;;;;4977834;28;20469;-68
2023/11/25 03:43:25;;;;;;;13.30;2.53;;;4.20;99.90;;;;;;4979495;28;20449;-68
2023/11/25 03:45:52;;;;;;;7.70;2.10;;;4.10;99.90;;;;;;4979292;28;20452;-68
2023/11/25 03:48:19;;;;;;;5.53;2.30;;;4.20;99.90;;;;;;4978032;28;20508;-68
2023/11/25 03:50:47;;;;;;;14.83;4.10;;;4.10;99.90;;;;;;4977321;28;20473;-67
2023/11/25 03:53:14;;;;;;;10.70;2.40;;;4.20;99.90;;;;;;4978951;28;20965;-68
2023/11/25 03:55:41;;;;;;;7.30;2.93;;;4.20;99.90;;;;;;4978608;28;20445;-68
2023/11/25 03:58:08;;;;;;;8.90;2.67;;;4.20;99.90;;;;;;4977619;28;20517;-68
2023/11/25 04:00:35;;;;;;;9.30;2.67;;;4.30;99.90;;;;;;4978703;28;20473;-68
2023/11/25 04:03:02;;;;;;;6.63;3.00;;;4.30;99.90;;;;;;4978958;28;20456;-68
2023/11/25 04:05:30;;;;;;;10.57;2.40;;;4.30;99.90;;;;;;4978520;28;20449;-68
2023/11/25 04:07:58;;;;;;;10.10;3.20;;;4.30;99.90;;;;;;4978056;28;20499;-68
2023/11/25 04:10:26;;;;;;;8.07;2.37;;;4.30;99.90;;;;;;4978211;28;20480;-68
2023/11/25 04:12:55;;;;;;;15.20;2.50;;;4.30;99.90;;;;;;4978544;28;20453;-68
2023/11/25 04:15:22;;;;;;;7.80;2.40;;;4.30;99.90;;;;;;4977949;28;20552;-68
2023/11/25 04:17:50;;;;;;;12.80;3.23;;;4.40;99.90;;;;;;4977650;28;20485;-68
2023/11/25 04:20:24;;;;;;;8.50;2.33;;;4.40;99.90;;;;;;4978046;28;20519;-68
2023/11/25 04:22:51;;;;;;;5.67;2.13;;;4.40;99.90;;;;;;4978009;28;20440;-68
2023/11/25 04:25:19;;;;;;;6.80;2.80;;;4.50;99.90;;;;;;4978377;28;20453;-68
2023/11/25 04:27:48;;;;;;;10.70;2.80;;;4.50;99.90;;;;;;4979000;28;20492;-68
2023/11/25 04:30:16;;;;;;;6.40;2.33;;;4.50;99.90;;;;;;4978660;28;20470;-68
2023/11/25 04:32:44;;;;;;;14.40;3.33;;;4.50;99.90;;;;;;4978470;28;20456;-68
2023/11/25 04:35:14;;;;;;;13.57;4.17;;;4.50;99.90;;;;;;4977279;28;20954;-68
2023/11/25 04:37:44;;;;;;;8.50;2.43;;;4.50;99.90;;;;;;4978456;28;20508;-68
2023/11/25 04:40:12;;;;;;;13.10;2.37;;;4.50;99.90;;;;;;4977787;28;20979;-68
2023/11/25 04:42:42;;;;;;;8.23;2.67;;;4.50;99.90;;;;;;4978222;28;20518;-68
2023/11/25 04:45:15;;;;;;;11.73;2.27;;;4.50;99.90;;;;;;4978041;28;20436;-68
2023/11/25 04:47:43;;;;;;;7.10;2.47;;;4.50;99.90;;;;;;4977089;28;20853;-66
2023/11/25 04:50:11;;;;;;;16.03;2.63;;;4.50;99.90;;;;;;4987870;28;20500;-67
2023/11/25 04:52:38;;;;;;;8.67;2.57;;;4.50;99.90;;;;;;4985656;28;20449;-68
2023/11/25 04:55:06;;;;;;;5.20;2.30;;;4.50;99.90;;;;;;4980917;28;20456;-68
2023/11/25 04:57:33;;;;;;;17.07;2.73;;;4.50;99.90;;;;;;4980452;28;20484;-68
2023/11/25 05:00:02;;;;;;;9.40;2.40;;;4.50;99.90;;;;;;4978745;28;21196;-67
2023/11/25 05:02:29;;;;;;;5.87;1.83;;;4.50;99.90;;;;;;4979575;28;20449;-68
2023/11/25 05:04:56;;;;;;;12.83;3.07;;;4.50;99.90;;;;;;4979153;28;20449;-68
2023/11/25 05:07:23;;;;;;;9.20;1.70;;;4.50;99.90;;;;;;4978304;28;20939;-66
2023/11/25 05:09:49;;;;;;;5.67;2.07;;;4.40;99.90;;;;;;4978410;28;20469;-67
2023/11/25 05:12:19;;;;;;;6.07;2.20;;;4.40;99.90;;;;;;4977558;28;21007;-68
2023/11/25 05:14:46;;;;;;;11.20;2.33;;;4.40;99.90;;;;;;4977746;28;20461;-68
2023/11/25 05:17:14;;;;;;;12.13;2.23;;;4.50;99.90;;;;;;4977842;28;20511;-68
2023/11/25 05:19:41;;;;;;;13.30;2.53;;;4.50;99.90;;;;;;4978082;28;20524;-68
2023/11/25 05:22:09;;;;;;;16.70;3.23;;;4.50;99.90;;;;;;4977319;28;20480;-68
2023/11/25 05:24:36;;;;;;;5.70;1.70;;;4.40;99.90;;;;;;4980849;28;20452;-69
2023/11/25 05:27:03;;;;;;;13.30;2.77;;;4.50;99.90;;;;;;4982041;28;20493;-68
2023/11/25 05:29:30;;;;;;;16.20;2.50;;;4.50;99.90;;;;;;4980717;28;20479;-67
2023/11/25 05:31:57;;;;;;;6.57;2.53;;;4.50;99.90;;;;;;4978989;28;20947;-68
2023/11/25 05:34:25;;;;;;;12.37;2.63;;;4.50;99.90;;;;;;4978904;28;20481;-67
2023/11/25 05:36:54;;;;;;;16.57;2.93;;;4.50;99.90;;;;;;4977277;28;20453;-67
2023/11/25 05:39:21;;;;;;;6.00;1.53;;;4.50;99.90;;;;;;4976171;28;20979;-65
2023/11/25 05:41:49;;;;;;;13.63;2.90;;;4.50;99.90;;;;;;4977225;28;20453;-67
2023/11/25 05:44:16;;;;;;;12.83;2.70;;;4.50;99.90;;;;;;4977162;28;20985;-68
2023/11/25 05:46:43;;;;;;;12.07;2.40;;;4.50;99.90;;;;;;4977322;28;20457;-67
2023/11/25 05:49:10;;;;;;;6.93;2.27;;;4.50;99.90;;;;;;4975680;28;20505;-67
2023/11/25 05:51:42;;;;;;;10.20;2.10;;;4.60;99.90;;;;;;4976716;28;20455;-66
2023/11/25 05:54:12;;;;;;;14.53;2.10;;;4.50;99.90;;;;;;4976876;28;20438;-67
2023/11/25 05:56:39;;;;;;;12.33;2.80;;;4.50;99.90;;;;;;4976827;28;20473;-67
2023/11/25 05:59:09;;;;;;;12.70;2.50;;;4.50;99.90;;;;;;4975029;28;20493;-67
2023/11/25 06:01:37;;;;;;;8.07;1.87;;;4.50;99.90;;;;;;4976569;28;20833;-67
2023/11/25 06:04:04;;;;;;;10.70;1.87;;;4.60;99.90;;;;;;4976659;28;20449;-67
2023/11/25 06:06:31;;;;;;;6.80;2.20;;;4.60;99.90;;;;;;4976494;28;20478;-67
2023/11/25 06:08:59;;;;;;;12.83;2.10;;;4.60;99.90;;;;;;4976368;28;20867;-67
2023/11/25 06:11:28;;;;;;;8.77;2.27;;;4.70;99.90;;;;;;4976282;28;20461;-68
2023/11/25 06:13:56;;;;;;;12.60;2.50;;;4.70;99.90;;;;;;4976297;28;20460;-67
2023/11/25 06:16:23;;;;;;;10.00;2.90;;;4.80;99.90;;;;;;4976573;28;20457;-67
2023/11/25 06:18:51;;;;;;;9.50;2.77;;;4.80;99.90;;;;;;4976024;28;20488;-67
2023/11/25 06:21:19;;;;;;;17.70;2.43;;;4.80;99.90;;;;;;4975868;28;20947;-67
2023/11/25 06:23:46;;;;;;;16.13;2.80;;;4.80;99.90;;;;;;4976024;28;20461;-67
2023/11/25 06:26:15;;;;;;;8.50;2.07;;;4.80;99.90;;;;;;4975743;28;20485;-67
2023/11/25 06:28:42;;;;;;;8.00;2.23;;;4.90;99.90;;;;;;4975910;28;20447;-67
2023/11/25 06:31:09;;;;;;;8.60;2.50;;;4.80;99.90;;;;;;4974580;28;20488;-67
2023/11/25 06:33:36;;;;;;;13.40;2.60;;;4.90;99.90;;;;;;4976106;28;20451;-66
2023/11/25 06:36:04;;;;;;;12.80;2.43;;;4.80;99.90;;;;;;4974068;28;20446;-67
2023/11/25 06:38:32;;;;;;;9.13;2.10;;;4.90;99.90;;;;;;4975918;28;20485;-67
2023/11/25 06:41:00;;;;;;;11.73;2.70;;;4.90;99.90;;;;;;4975328;28;20531;-67
2023/11/25 06:43:29;;;;;;;13.47;3.13;;;4.90;99.90;;;;;;4975439;28;20454;-67
2023/11/25 06:45:57;;;;;;;12.40;2.43;;;4.90;99.90;;;;;;4975216;28;21068;-66
2023/11/25 06:48:23;;;;;;;14.57;2.80;;;4.90;99.90;;;;;;4976311;28;20931;-65
2023/11/25 06:50:51;;;;;;;7.77;2.60;;;4.90;99.90;;;;;;4976435;28;20465;-65
2023/11/25 06:53:19;;;;;;;12.97;2.00;;;4.90;99.90;;;;;;4973958;28;20531;-65
2023/11/25 06:55:46;;;;;;;10.10;2.30;;;4.90;99.90;;;;;;4975316;28;20504;-66
2023/11/25 06:58:13;;;;;;;9.23;2.37;;;4.90;99.90;;;;;;4974191;28;20499;-66
2023/11/25 07:00:44;;;;;;;15.37;4.00;;;4.90;99.90;;;;;;4975440;28;20471;-66
2023/11/25 07:03:11;;;;;;;12.07;3.80;;;4.90;99.90;;;;;;4981395;28;20461;-66
2023/11/25 07:05:38;;;;;;;13.73;3.43;;;4.90;99.90;;;;;;4985161;28;20457;-66
2023/11/25 07:08:06;;;;;;;16.13;2.83;;;4.90;99.90;;;;;;4979642;28;20445;-66
2023/11/25 07:10:34;;;;;;;7.87;3.73;;;4.80;99.90;;;;;;4978116;28;20492;-66
2023/11/25 07:13:01;;;;;;;15.30;3.37;;;4.90;99.90;;;;;;4979006;28;20460;-66
2023/11/25 07:15:29;;;;;;;12.07;1.90;;;4.90;99.90;;;;;;4978461;28;20449;-66
2023/11/25 07:17:57;;;;;;;14.27;2.23;;;4.90;99.90;;;;;;4975696;28;20487;-66
2023/11/25 07:20:24;;;;;;;7.10;2.73;;;4.90;99.90;;;;;;4976899;28;20477;-67
2023/11/25 07:22:51;;;;;;;11.80;2.87;;;4.90;99.90;;;;;;4958705;28;20942;-67
2023/11/25 07:25:18;;;;;;;8.73;2.60;;;4.90;99.90;;;;;;4974110;28;20456;-66
2023/11/25 07:27:46;;;;;;;8.67;3.20;;;4.80;99.90;;;;;;4975258;28;20475;-66
2023/11/25 07:30:14;;;;;;;12.70;2.63;;;4.80;99.90;;;;;;4974883;28;20559;-66
2023/11/25 07:32:41;;;;;;;11.17;3.10;;;4.80;99.90;;;;;;4974640;28;20851;-66
2023/11/25 07:35:10;;;;;;;12.43;3.17;;;4.90;99.90;;;;;;4973752;28;20453;-66
2023/11/25 07:37:38;;;;;;;11.90;3.20;;;4.90;99.90;;;;;;4976515;28;20480;-67
2023/11/25 07:40:09;;;;;;;6.53;2.00;;;4.90;99.90;;;;;;4975658;28;21025;-66
2023/11/25 07:42:37;;;;;;;9.43;2.47;;;4.90;99.90;;;;;;4975311;28;20540;-67
2023/11/25 07:45:06;;;;;;;7.17;1.80;;;4.90;99.90;;;;;;4974715;28;20445;-66
2023/11/25 07:47:33;;;;;;;8.63;2.40;;;4.90;99.90;;;;;;4979122;28;20484;-67
2023/11/25 07:50:00;;;;;;;14.00;2.40;;;4.90;99.90;;;;;;4978332;28;20496;-67
2023/11/25 07:52:28;;;;;;;7.00;2.50;;;4.90;99.90;;;;;;4978375;28;20456;-67
2023/11/25 07:54:55;;;;;;;8.63;1.87;;;5.00;99.90;;;;;;4978292;28;20453;-67
2023/11/25 07:57:22;;;;;;;8.63;1.80;;;5.00;99.90;;;;;;4977834;28;20445;-67
2023/11/25 07:59:51;;;;;;;6.87;1.90;;;5.10;99.90;;;;;;4982618;28;20497;-67
2023/11/25 08:02:18;;;;;;;8.83;2.53;;;5.10;99.90;;;;;;4980558;28;20507;-67
2023/11/25 08:04:45;;;;;;;4.77;1.90;;;5.20;99.90;;;;;;4978358;28;20822;-67
2023/11/25 08:07:12;;;;;;;11.20;1.87;;;5.20;99.90;;;;;;4978805;28;20471;-67
2023/11/25 08:09:41;;;;;;;7.13;1.67;;;5.20;99.90;;;;;;4978462;28;20465;-67
2023/11/25 08:12:09;;;;;;;10.63;2.47;;;5.30;99.90;;;;;;4978059;28;20449;-67
2023/11/25 08:14:36;;;;;;;10.37;2.17;;;5.30;99.90;;;;;;4978112;28;20529;-67
2023/11/25 08:17:03;;;;;;;7.80;2.70;;;5.30;99.90;;;;;;4978027;28;20476;-67
2023/11/25 08:19:30;;;;;;;11.17;2.53;;;5.30;99.90;;;;;;4977885;28;20497;-67
2023/11/25 08:21:57;;;;;;;14.67;2.23;;;5.30;99.90;;;;;;4977710;28;20879;-67
2023/11/25 08:24:25;;;;;;;12.27;2.50;;;5.30;99.90;;;;;;4977687;28;20804;-67
2023/11/25 08:26:53;;;;;;;23.20;4.50;;;5.30;99.90;;;;;;4977627;28;20454;-67
2023/11/25 08:29:20;;;;;;;11.43;2.83;;;5.30;99.90;;;;;;4977761;28;20813;-67
2023/11/25 08:31:47;;;;;;;8.30;2.67;;;5.30;99.90;;;;;;4977463;28;20454;-67
2023/11/25 08:34:14;;;;;;;12.23;3.03;;;5.30;99.90;;;;;;4977695;28;20449;-67
2023/11/25 08:36:52;;;;;;;13.77;4.03;;;5.40;99.90;;;;;;4977784;28;20448;-67
2023/11/25 08:39:20;;;;;;;13.80;3.87;;;5.40;99.90;;;;;;4977766;28;20488;-67
2023/11/25 08:41:47;;;;;;;6.87;2.60;;;5.40;99.90;;;;;;4976885;28;20986;-66
2023/11/25 08:44:17;;;;;;;8.67;2.50;;;5.40;99.90;;;;;;4975778;28;20460;-66
2023/11/25 08:46:44;;;;;;;14.00;2.40;;;5.40;99.90;;;;;;4977384;28;20445;-66
2023/11/25 08:49:13;;;;;;;10.37;2.80;;;5.50;99.90;;;;;;4977186;28;20476;-66
2023/11/25 08:51:45;;;;;;;14.33;3.80;;;5.40;99.90;;;;;;4977636;28;20503;-67
2023/11/25 08:54:12;;;;;;;7.20;2.03;;;5.50;99.90;;;;;;4976699;28;20453;-67
2023/11/25 08:56:41;;;;;;;9.20;2.70;;;5.50;99.90;;;;;;4976982;28;20449;-67
2023/11/25 08:59:08;;;;;;;12.30;2.20;;;5.60;99.90;;;;;;4976147;28;20584;-67
2023/11/25 09:01:42;;;;;;;9.00;2.27;;;5.70;99.90;;;;;;4977439;28;20456;-67
2023/11/25 09:04:13;;;;;;;7.57;2.17;;;5.90;99.90;;;;;;4976917;28;20927;-67
2023/11/25 09:06:40;;;;;;;6.50;1.70;;;6.10;99.90;;;;;;4977214;28;20476;-67
2023/11/25 09:09:07;;;;;;;7.07;1.87;;;6.10;99.90;;;;;;4975886;28;20501;-67
2023/11/25 09:11:34;;;;;;;6.13;2.03;;;6.10;99.90;;;;;;4978449;28;20453;-67
2023/11/25 09:14:02;;;;;;;7.40;2.07;;;6.10;99.90;;;;;;4984232;28;20476;-68
2023/11/25 09:16:29;;;;;;;11.53;2.07;;;6.10;99.90;;;;;;4992246;28;20460;-67
2023/11/25 09:18:57;;;;;;;7.63;2.63;;;6.00;99.90;;;;;;4985327;28;20492;-67
2023/11/25 09:21:25;;;;;;;10.10;2.80;;;6.10;99.90;;;;;;4982458;28;20827;-67
2023/11/25 09:23:52;;;;;;;5.80;2.10;;;6.00;99.90;;;;;;4982864;28;20453;-67
2023/11/25 09:26:24;;;;;;;8.87;3.03;;;6.10;99.90;;;;;;4980755;28;20456;-67
2023/11/25 09:28:51;;;;;;;9.80;2.50;;;6.10;99.90;;;;;;4980601;28;20436;-67
2023/11/25 09:31:18;;;;;;;10.30;3.27;;;6.00;99.90;;;;;;4980012;28;20453;-67
2023/11/25 09:33:44;;;;;;;11.30;2.80;;;6.00;99.90;;;;;;4979130;28;20449;-67
2023/11/25 09:36:13;;;;;;;8.20;2.83;;;6.10;99.90;;;;;;4976868;28;20892;-67
2023/11/25 09:38:40;;;;;;;12.40;2.93;;;6.10;99.90;;;;;;4978557;28;20489;-67
2023/11/25 09:41:07;;;;;;;10.53;2.30;;;6.20;99.90;;;;;;4979286;28;20449;-67
2023/11/25 09:43:36;;;;;;;10.93;2.80;;;6.20;99.90;;;;;;4977601;28;20979;-67
2023/11/25 09:46:03;;;;;;;9.10;2.90;;;6.30;99.90;;;;;;4961485;28;20449;-67
2023/11/25 09:48:33;;;;;;;7.10;2.30;;;6.30;99.90;;;;;;4977887;28;20948;-67
2023/11/25 09:51:00;;;;;;;9.93;2.50;;;6.40;99.90;;;;;;4977745;28;20528;-67
2023/11/25 09:53:31;;;;;;;12.33;2.77;;;6.60;99.90;;;;;;4976309;28;20454;-68
2023/11/25 09:56:03;;;;;;;14.17;2.83;;;6.70;99.90;;;;;;4975731;28;20880;-67
2023/11/25 09:58:33;;;;;;;9.47;2.07;;;6.90;99.90;;;;;;4977235;28;20511;-67
2023/11/25 10:01:00;;;;;;;10.33;2.60;;;6.90;99.90;;;;;;4976412;28;20473;-67
2023/11/25 10:03:32;;;;;;;11.33;2.50;;;6.90;99.90;;;;;;4977007;28;20472;-67
2023/11/25 10:05:59;;;;;;;9.23;2.97;;;6.90;99.90;;;;;;4976796;28;20449;-67
2023/11/25 10:08:27;;;;;;;9.77;2.53;;;6.90;99.90;;;;;;4975328;28;20445;-68
2023/11/25 10:11:05;;;;;;;5.50;1.83;;;7.00;99.90;;;;;;4976505;28;20501;-67
2023/11/25 10:13:36;;;;;;;6.93;3.77;;;7.00;99.90;;;;;;4976644;28;20452;-67
2023/11/25 10:16:05;;;;;;;10.23;3.30;;;7.00;99.90;;;;;;4976140;28;20432;-67
2023/11/25 10:18:34;;;;;;;8.93;2.93;;;6.90;99.90;;;;;;4974686;28;20484;-67
2023/11/25 10:21:05;;;;;;;8.03;2.30;;;6.80;99.90;;;;;;4975913;28;20460;-68
2023/11/25 10:23:34;;;;;;;9.77;3.60;;;6.70;99.90;;;;;;4975022;28;20438;-67
2023/11/25 10:26:04;;;;;;;10.17;2.70;;;6.80;99.90;;;;;;4975732;28;20817;-68
2023/11/25 10:28:33;;;;;;;6.90;2.20;;;6.80;99.90;;;;;;4975792;28;20496;-68
2023/11/25 10:31:01;;;;;;;11.60;2.23;;;6.90;99.90;;;;;;4975678;28;20971;-68
2023/11/25 10:33:28;;;;;;;13.27;2.67;;;7.00;99.90;;;;;;4974740;28;20886;-67
2023/11/25 10:35:55;;;;;;;6.33;2.37;;;7.00;99.90;;;;;;4976477;28;20449;-68
2023/11/25 10:38:27;;;;;;;5.33;1.93;;;7.10;99.90;;;;;;4980526;28;20453;-67
2023/11/25 10:41:01;;;;;;;6.77;2.20;;;7.20;99.90;;;;;;4978834;28;20473;-67
2023/11/25 10:43:29;;;;;;;5.07;2.00;;;7.40;99.90;;;;;;4977179;28;20454;-67
2023/11/25 10:46:02;;;;;;;7.10;1.80;;;7.50;99.90;;;;;;4976722;28;20453;-68
2023/11/25 10:48:29;;;;;;;7.47;2.20;;;7.70;99.90;;;;;;4976321;28;20458;-67
2023/11/25 10:50:57;;;;;;;5.20;1.43;;;7.80;99.90;;;;;;4976118;28;20499;-67
2023/11/25 10:53:29;;;;;;;8.40;1.50;;;8.10;99.90;;;;;;4975420;28;20457;-67
2023/11/25 10:55:58;;;;;;;5.27;1.80;;;8.30;99.90;;;;;;4976288;28;20457;-68
2023/11/25 10:58:29;;;;;;;5.03;1.57;;;8.60;99.90;;;;;;4978227;28;20521;-68
2023/11/25 11:00:57;;;;;;;2.70;1.30;;;8.70;99.90;;;;;;4995225;28;20528;-68
2023/11/25 11:03:37;;;;;;;6.53;1.83;;;8.60;99.90;;;;;;4995426;28;20448;-68
2023/11/25 11:06:08;;;;;;;10.00;2.00;;;8.50;99.90;;;;;;4995112;28;20428;-68
2023/11/25 11:08:40;;;;;;;3.63;1.97;;;8.30;99.90;;;;;;4995193;28;20437;-68
2023/11/25 11:11:11;;;;;;;5.80;1.90;;;8.20;99.90;;;;;;4994919;28;20429;-68
2023/11/25 11:13:43;;;;;;;6.87;3.17;;;8.30;99.90;;;;;;4994881;28;20429;-68
2023/11/25 11:16:17;;;;;;;3.50;1.27;;;8.70;99.90;;;;;;4994572;28;20448;-68
2023/11/25 11:18:45;;;;;;;6.67;1.80;;;9.00;99.90;;;;;;4994805;28;20848;-68
2023/11/25 11:21:15;;;;;;;5.77;1.30;;;9.40;99.90;;;;;;4996179;28;20455;-69
2023/11/25 11:23:43;;;;;;;4.27;2.60;;;9.70;99.90;;;;;;5000161;28;20503;-68
2023/11/25 11:26:23;;;;;;;5.00;1.37;;;9.80;98.80;;;;;;5008193;28;20857;-68
2023/11/25 11:29:00;;;;;;;4.67;1.40;;;9.70;98.30;;;;;;5005428;28;20432;-68
2023/11/25 11:31:56;;;;;;;4.00;1.40;;;9.50;98.60;;;;;;5001202;28;20436;-68
2023/11/25 11:34:24;;;;;;;5.60;1.37;;;9.20;99.10;;;;;;4999967;28;20444;-68
2023/11/25 11:36:52;;;;;;;4.37;1.60;;;9.00;99.40;;;;;;4998553;28;20448;-68
2023/11/25 11:39:38;;;;;;;4.90;1.30;;;8.90;99.90;;;;;;4998950;28;20491;-68
2023/11/25 11:42:27;;;;;;;11.93;1.30;;;8.90;99.90;;;;;;4999246;28;20467;-68
2023/11/25 11:47:48;;;;;;;3.97;1.63;;;8.70;99.90;;;;;;4995911;28;20436;-68
2023/11/25 11:50:20;;;;;;;13.33;2.10;;;8.70;99.90;;;;;;4997632;28;20981;-68
2023/11/25 11:52:48;;;;;;;11.57;2.20;;;8.70;99.90;;;;;;4998679;28;20795;-68
2023/11/25 11:55:36;;;;;;;7.37;2.03;;;8.60;99.90;;;;;;4998116;28;20447;-68
2023/11/25 11:58:06;;;;;;;8.33;2.17;;;8.60;99.90;;;;;;4997197;28;20443;-68
2023/11/25 12:00:40;;;;;;;4.30;1.80;;;8.60;99.90;;;;;;4999176;28;20499;-68
2023/11/25 12:03:07;;;;;;;3.20;1.63;;;8.80;99.90;;;;;;4998517;28;20429;-68
2023/11/25 12:05:34;;;;;;;10.93;2.37;;;9.10;99.90;;;;;;4998315;28;20642;-68
2023/11/25 12:08:05;;;;;;;7.10;2.83;;;9.20;99.90;;;;;;4998541;28;20818;-68
2023/11/25 12:10:32;;;;;;;4.43;1.50;;;9.20;99.90;;;;;;4997559;28;20837;-67
2023/11/25 12:12:59;;;;;;;5.87;2.10;;;9.10;99.90;;;;;;4998492;28;20448;-68
2023/11/25 12:15:26;;;;;;;7.47;1.93;;;9.00;99.90;;;;;;4998321;28;20448;-68
2023/11/25 12:17:55;;;;;;;3.70;1.37;;;9.20;99.90;;;;;;4997735;28;20951;-68
2023/11/25 12:20:22;;;;;;;9.30;2.20;;;9.70;99.90;;;;;;4998277;28;20483;-68
2023/11/25 12:22:50;;;;;;;5.63;2.27;;;10.00;98.80;;;;;;4998451;28;20524;-68
2023/11/25 12:25:18;;;;;;;8.43;1.60;;;10.10;97.50;;;;;;4998516;28;20451;-68
2023/11/25 12:27:58;;;;;;;5.73;1.60;;;10.20;97.30;;;;;;4998454;28;20456;-68
2023/11/25 12:30:26;;;;;;;6.60;1.53;;;10.50;96.70;;;;;;4997525;28;20503;-68
2023/11/25 12:32:52;;;;;;;7.33;1.50;;;10.70;95.80;;;;;;4998314;28;20444;-68
2023/11/25 12:35:20;;;;;;;5.73;1.33;;;10.90;95.40;;;;;;4998547;28;20452;-68
2023/11/25 12:37:50;;;;;;;5.83;1.57;;;10.90;94.80;;;;;;4997805;28;20495;-68
2023/11/25 12:40:19;;;;;;;3.30;1.07;;;10.50;93.90;;;;;;4997614;28;20498;-68
2023/11/25 12:42:47;;;;;;;8.60;2.07;;;10.10;94.90;;;;;;4997965;28;20448;-68
2023/11/25 12:45:29;;;;;;;5.53;1.30;;;10.00;96.10;;;;;;4998926;28;20458;-68
2023/11/25 12:47:56;;;;;;;9.43;1.53;;;9.90;96.90;;;;;;4997829;28;20436;-68
2023/11/25 12:50:24;;;;;;;10.10;2.00;;;9.60;97.30;;;;;;4997655;28;20472;-67
2023/11/25 12:53:08;;;;;;;5.83;2.03;;;9.50;97.60;;;;;;4998145;28;20491;-70
2023/11/25 12:55:39;;;;;;;4.10;2.00;;;9.30;98.20;;;;;;4996131;28;20436;-69
2023/11/25 12:58:11;;;;;;;4.60;1.77;;;9.30;98.50;;;;;;4997351;28;20448;-69
2023/11/25 13:00:44;;;;;;;10.53;1.97;;;9.50;99.10;;;;;;4998842;28;20492;-69
2023/11/25 13:03:12;;;;;;;7.90;1.13;;;10.00;97.90;;;;;;5000373;28;20440;-69